createdAt,value
2019-03-21T00:01:31.829Z,68.50
2019-03-21T00:04:12.173Z,67.96
2019-03-21T00:06:40.784Z,68.09
2019-03-21T00:09:11.683Z,67.56
2019-03-21T00:12:00.532Z,67.78
2019-03-21T00:14:44.583Z,67.53
2019-03-21T00:17:19.159Z,67.44
2019-03-21T00:19:47.638Z,70.06
2019-03-21T00:22:16.228Z,70.79
2019-03-21T00:24:45.661Z,67.95
2019-03-21T00:27:14.254Z,67.26
2019-03-21T00:29:42.827Z,67.09
2019-03-21T00:32:11.422Z,68.09
2019-03-21T00:34:45.379Z,69.28
2019-03-21T00:37:13.972Z,69.32
2019-03-21T00:39:42.583Z,68.31
2019-03-21T00:42:11.162Z,67.26
2019-03-21T00:44:39.730Z,66.99
2019-03-21T00:47:08.185Z,67.07
2019-03-21T00:49:36.662Z,67.12
2019-03-21T00:52:05.270Z,67.61
2019-03-21T00:54:33.797Z,69.16
2019-03-21T00:57:02.393Z,70.82
2019-03-21T00:59:31.022Z,69.83
2019-03-21T01:02:00.582Z,68.95
2019-03-21T01:04:29.497Z,68.46
2019-03-21T01:06:58.086Z,67.64
2019-03-21T01:09:26.722Z,68.37
2019-03-21T01:11:55.271Z,69.00
2019-03-21T01:14:29.790Z,68.68
2019-03-21T01:16:54.255Z,68.45
2019-03-21T01:19:22.793Z,68.17
2019-03-21T01:21:51.400Z,67.61
2019-03-21T01:24:19.867Z,67.13
2019-03-21T01:26:48.535Z,67.00
2019-03-21T01:29:17.072Z,67.69
2019-03-21T01:31:45.544Z,70.41
2019-03-21T01:34:14.112Z,69.01
2019-03-21T01:36:42.692Z,67.40
2019-03-21T01:39:11.202Z,67.33
2019-03-21T01:41:39.848Z,67.12
2019-03-21T01:44:08.382Z,68.70
2019-03-21T01:46:36.948Z,68.89
2019-03-21T01:49:05.614Z,68.06
2019-03-21T01:51:34.227Z,67.33
2019-03-21T01:54:02.855Z,67.09
2019-03-21T01:56:31.767Z,66.69
2019-03-21T01:59:00.309Z,66.82
2019-03-21T02:01:28.927Z,67.62
2019-03-21T02:03:57.462Z,68.59
2019-03-21T02:06:25.991Z,70.23
2019-03-21T02:08:54.814Z,70.21
2019-03-21T02:11:23.414Z,68.12
2019-03-21T02:13:51.997Z,67.92
2019-03-21T02:16:20.542Z,67.67
2019-03-21T02:18:49.166Z,68.35
2019-03-21T02:21:18.837Z,68.65
2019-03-21T02:23:47.335Z,68.72
2019-03-21T02:26:15.962Z,68.55
2019-03-21T02:28:44.531Z,68.70
2019-03-21T02:31:13.172Z,68.71
2019-03-21T02:33:44.483Z,67.98
2019-03-21T02:36:14.217Z,68.16
2019-03-21T02:38:42.781Z,67.78
2019-03-21T02:41:14.323Z,70.05
2019-03-21T02:43:42.793Z,72.06
2019-03-21T02:46:11.307Z,68.75
2019-03-21T02:48:39.870Z,67.58
2019-03-21T02:51:08.791Z,68.68
2019-03-21T02:53:37.356Z,68.47
2019-03-21T02:56:09.221Z,68.69
2019-03-21T02:58:37.785Z,68.91
2019-03-21T03:01:06.337Z,69.06
2019-03-21T03:03:34.867Z,68.62
2019-03-21T03:06:03.544Z,68.04
2019-03-21T03:08:32.084Z,67.58
2019-03-21T03:11:03.612Z,67.06
2019-03-21T03:13:33.184Z,66.99
2019-03-21T03:16:01.709Z,68.46
2019-03-21T03:18:30.556Z,71.77
2019-03-21T03:20:59.061Z,68.46
2019-03-21T03:23:27.581Z,68.44
2019-03-21T03:25:56.212Z,67.68
2019-03-21T03:28:26.906Z,68.42
2019-03-21T03:30:57.407Z,68.86
2019-03-21T03:33:26.018Z,69.07
2019-03-21T03:35:54.862Z,68.33
2019-03-21T03:38:23.407Z,67.75
2019-03-21T03:40:54.498Z,67.92
2019-03-21T03:43:23.157Z,67.79
2019-03-21T03:45:51.687Z,67.85
2019-03-21T03:48:20.430Z,67.49
2019-03-21T03:50:48.931Z,68.07
2019-03-21T03:53:17.605Z,73.65
2019-03-21T03:55:46.519Z,71.16
2019-03-21T03:58:20.698Z,69.51
2019-03-21T04:00:49.324Z,67.60
2019-03-21T04:03:17.922Z,67.31
2019-03-21T04:05:46.601Z,68.96
2019-03-21T04:08:15.225Z,69.93
2019-03-21T04:10:48.445Z,70.07
2019-03-21T04:13:16.982Z,69.92
2019-03-21T04:15:52.356Z,69.22
2019-03-21T04:18:17.550Z,68.65
2019-03-21T04:20:49.206Z,69.07
2019-03-21T04:23:20.218Z,68.94
2019-03-21T04:26:00.795Z,68.68
2019-03-21T04:28:29.485Z,71.80
2019-03-21T04:30:58.051Z,72.45
2019-03-21T04:33:26.661Z,70.16
2019-03-21T04:35:55.303Z,69.05
2019-03-21T04:38:24.148Z,69.28
2019-03-21T04:40:52.732Z,69.98
2019-03-21T04:43:21.869Z,70.26
2019-03-21T04:45:50.456Z,70.00
2019-03-21T04:48:18.992Z,69.55
2019-03-21T04:50:47.472Z,69.21
2019-03-21T04:53:16.032Z,69.05
2019-03-21T04:55:44.602Z,69.01
2019-03-21T04:58:13.111Z,68.43
2019-03-21T05:00:44.392Z,68.92
2019-03-21T05:03:18.297Z,69.41
2019-03-21T05:05:46.869Z,71.79
2019-03-21T05:08:15.412Z,68.77
2019-03-21T05:10:43.931Z,68.13
2019-03-21T05:13:12.462Z,68.91
2019-03-21T05:15:51.505Z,69.06
2019-03-21T05:18:26.090Z,69.93
2019-03-21T05:20:54.554Z,69.69
2019-03-21T05:23:23.132Z,69.27
2019-03-21T05:25:51.793Z,69.12
2019-03-21T05:28:20.363Z,68.80
2019-03-21T05:30:51.921Z,68.95
2019-03-21T05:33:20.455Z,69.12
2019-03-21T05:35:49.100Z,69.15
2019-03-21T05:38:19.204Z,69.87
2019-03-21T05:40:47.996Z,72.73
2019-03-21T05:43:34.548Z,70.27
2019-03-21T05:46:03.168Z,68.90
2019-03-21T05:48:31.719Z,67.92
2019-03-21T05:51:00.225Z,68.93
2019-03-21T05:53:28.809Z,70.10
2019-03-21T05:55:57.425Z,70.20
2019-03-21T05:58:26.011Z,69.67
2019-03-21T06:01:00.672Z,68.77
2019-03-21T06:03:32.790Z,67.93
2019-03-21T06:06:04.329Z,67.82
2019-03-21T06:08:35.844Z,67.47
2019-03-21T06:11:04.730Z,67.43
2019-03-21T06:13:33.369Z,68.44
2019-03-21T06:16:08.820Z,73.85
2019-03-21T06:18:49.160Z,69.27
2019-03-21T06:21:35.064Z,67.46
2019-03-21T06:24:30.750Z,68.18
2019-03-21T06:27:28.420Z,68.46
2019-03-21T06:29:57.008Z,69.09
2019-03-21T06:32:26.843Z,69.06
2019-03-21T06:34:56.473Z,68.51
2019-03-21T06:37:28.325Z,68.15
2019-03-21T06:39:55.816Z,68.00
2019-03-21T06:42:24.433Z,67.93
2019-03-21T06:44:53.018Z,67.86
2019-03-21T06:47:21.579Z,67.82
2019-03-21T06:49:50.106Z,69.45
2019-03-21T06:52:18.589Z,70.00
2019-03-21T06:54:47.094Z,68.56
2019-03-21T06:57:15.695Z,67.56
2019-03-21T06:59:44.212Z,67.77
2019-03-21T07:02:12.882Z,68.71
2019-03-21T07:04:41.355Z,69.12
2019-03-21T07:07:09.838Z,69.04
2019-03-21T07:09:38.467Z,68.72
2019-03-21T07:12:07.896Z,68.19
2019-03-21T07:14:36.638Z,68.08
2019-03-21T07:17:05.158Z,66.70
2019-03-21T07:19:33.704Z,66.02
2019-03-21T07:22:02.330Z,64.63
2019-03-21T07:24:31.081Z,64.50
2019-03-21T07:26:59.597Z,65.66
2019-03-21T07:29:28.241Z,63.02
2019-03-21T07:31:56.845Z,60.75
2019-03-21T07:34:25.543Z,59.24
2019-03-21T07:36:54.119Z,60.23
2019-03-21T07:39:22.695Z,59.93
2019-03-21T07:41:51.275Z,59.12
2019-03-21T07:44:19.820Z,58.57
2019-03-21T07:46:48.386Z,59.23
2019-03-21T07:49:16.972Z,58.74
2019-03-21T07:51:45.547Z,58.58
2019-03-21T07:54:14.006Z,58.68
2019-03-21T07:56:43.581Z,56.96
2019-03-21T07:59:12.212Z,57.44
2019-03-21T08:01:40.728Z,61.33
2019-03-21T08:04:09.280Z,58.11
2019-03-21T08:06:37.901Z,56.40
2019-03-21T08:09:07.903Z,55.82
2019-03-21T08:11:36.457Z,54.58
2019-03-21T08:14:05.345Z,54.64
2019-03-21T08:16:33.981Z,54.41
2019-03-21T08:19:02.605Z,53.88
2019-03-21T08:21:31.098Z,52.97
2019-03-21T08:23:59.692Z,53.29
2019-03-21T08:26:28.328Z,53.29
2019-03-21T08:28:56.996Z,53.05
2019-03-21T08:31:25.578Z,53.37
2019-03-21T08:33:54.163Z,53.44
2019-03-21T08:36:22.688Z,52.08
2019-03-21T08:38:51.232Z,52.37
2019-03-21T08:41:19.861Z,51.84
2019-03-21T08:43:48.528Z,51.13
2019-03-21T08:46:17.090Z,51.19
2019-03-21T08:48:45.696Z,50.90
2019-03-21T08:51:14.340Z,50.87
2019-03-21T08:53:42.921Z,51.37
2019-03-21T08:56:11.556Z,50.02
2019-03-21T08:58:40.640Z,50.14
2019-03-21T09:01:09.225Z,48.49
2019-03-21T09:03:37.790Z,49.73
2019-03-21T09:06:06.405Z,49.62
2019-03-21T09:08:35.037Z,48.87
2019-03-21T09:11:03.679Z,47.57
2019-03-21T09:13:32.229Z,49.31
2019-03-21T09:16:01.676Z,48.91
2019-03-21T09:18:30.304Z,48.56
2019-03-21T09:20:58.927Z,48.42
2019-03-21T09:23:27.489Z,47.80
2019-03-21T09:25:56.164Z,48.42
2019-03-21T09:28:24.752Z,48.09
2019-03-21T09:30:53.414Z,47.48
2019-03-21T09:33:21.974Z,47.49
2019-03-21T09:35:50.556Z,48.07
2019-03-21T09:38:19.150Z,48.92
2019-03-21T09:40:47.844Z,48.06
2019-03-21T09:43:16.507Z,47.66
2019-03-21T09:45:45.119Z,48.19
2019-03-21T09:48:13.714Z,48.52
2019-03-21T09:50:42.331Z,46.81
2019-03-21T09:53:10.933Z,47.59
2019-03-21T09:55:39.509Z,47.09
2019-03-21T09:58:08.033Z,46.51
2019-03-21T10:00:38.042Z,46.38
2019-03-21T10:03:07.064Z,45.72
2019-03-21T10:05:35.684Z,46.50
2019-03-21T10:08:04.896Z,46.61
2019-03-21T10:10:34.426Z,45.97
2019-03-21T10:13:03.308Z,45.75
2019-03-21T10:15:31.932Z,45.20
2019-03-21T10:18:00.531Z,45.30
2019-03-21T10:20:29.333Z,44.30
2019-03-21T10:22:57.956Z,45.95
2019-03-21T10:25:26.994Z,45.16
2019-03-21T10:27:55.798Z,45.96
2019-03-21T10:30:38.597Z,45.39
2019-03-21T10:33:09.740Z,44.63
2019-03-21T10:35:38.433Z,44.06
2019-03-21T10:38:07.869Z,43.99
2019-03-21T10:40:36.838Z,43.05
2019-03-21T10:43:06.281Z,43.66
2019-03-21T10:45:34.954Z,43.44
2019-03-21T10:48:03.618Z,43.48
2019-03-21T10:50:36.855Z,43.65
2019-03-21T10:53:06.040Z,42.65
2019-03-21T10:55:34.728Z,43.48
2019-03-21T10:58:03.339Z,42.67
2019-03-21T11:00:31.954Z,42.26
2019-03-21T11:03:00.585Z,42.12
2019-03-21T11:05:29.178Z,43.71
2019-03-21T11:07:57.702Z,42.91
2019-03-21T11:10:26.332Z,42.83
2019-03-21T11:12:54.964Z,42.28
2019-03-21T11:15:23.659Z,41.96
2019-03-21T11:17:52.400Z,42.26
2019-03-21T11:20:29.897Z,43.14
2019-03-21T11:22:58.435Z,42.64
2019-03-21T11:25:27.184Z,42.42
2019-03-21T11:27:55.830Z,41.70
2019-03-21T11:30:35.854Z,43.38
2019-03-21T11:33:05.089Z,42.14
2019-03-21T11:35:34.085Z,42.54
2019-03-21T11:38:02.690Z,42.01
2019-03-21T11:40:31.294Z,41.68
2019-03-21T11:43:00.288Z,41.34
2019-03-21T11:45:28.880Z,41.42
2019-03-21T11:47:59.693Z,41.28
2019-03-21T11:50:28.029Z,40.84
2019-03-21T11:52:56.619Z,40.96
2019-03-21T11:55:25.267Z,41.08
2019-03-21T11:57:53.875Z,41.39
2019-03-21T12:00:22.579Z,40.98
2019-03-21T12:02:51.173Z,41.06
2019-03-21T12:05:19.816Z,40.35
2019-03-21T12:07:48.293Z,39.58
2019-03-21T12:10:17.229Z,40.75
2019-03-21T12:12:45.854Z,39.87
2019-03-21T12:15:14.877Z,40.51
2019-03-21T12:17:43.504Z,39.81
2019-03-21T12:20:29.438Z,40.74
2019-03-21T12:22:58.064Z,39.19
2019-03-21T12:25:26.750Z,40.07
2019-03-21T12:27:55.384Z,39.97
2019-03-21T12:30:32.852Z,39.26
2019-03-21T12:33:02.139Z,40.07
2019-03-21T12:35:31.712Z,39.31
2019-03-21T12:38:00.328Z,39.49
2019-03-21T12:40:29.131Z,39.90
2019-03-21T12:42:57.765Z,40.43
2019-03-21T12:45:26.395Z,41.06
2019-03-21T12:47:54.998Z,40.19
2019-03-21T12:50:23.625Z,39.75
2019-03-21T12:52:52.212Z,40.01
2019-03-21T12:55:20.795Z,39.95
2019-03-21T12:57:49.409Z,39.64
2019-03-21T13:00:23.470Z,39.00
2019-03-21T13:02:52.160Z,39.63
2019-03-21T13:05:31.099Z,39.39
2019-03-21T13:07:59.661Z,38.32
2019-03-21T13:10:28.219Z,38.18
2019-03-21T13:12:56.880Z,36.96
2019-03-21T13:15:30.255Z,38.86
2019-03-21T13:17:56.109Z,39.05
2019-03-21T13:20:24.708Z,38.88
2019-03-21T13:22:53.981Z,39.04
2019-03-21T13:25:22.740Z,39.56
2019-03-21T13:27:51.289Z,39.10
2019-03-21T13:30:19.894Z,39.31
2019-03-21T13:32:48.492Z,38.55
2019-03-21T13:35:17.094Z,38.94
2019-03-21T13:37:45.663Z,39.05
2019-03-21T13:40:14.351Z,39.16
2019-03-21T13:42:43.849Z,39.15
2019-03-21T13:45:12.645Z,38.54
2019-03-21T13:47:41.276Z,38.50
2019-03-21T13:50:10.264Z,38.33
2019-03-21T13:52:38.852Z,39.07
2019-03-21T13:55:08.279Z,39.28
2019-03-21T13:57:36.918Z,38.24
2019-03-21T14:00:08.354Z,38.85
2019-03-21T14:02:36.837Z,38.48
2019-03-21T14:05:07.624Z,38.28
2019-03-21T14:07:36.229Z,38.74
2019-03-21T14:10:06.900Z,38.59
2019-03-21T14:12:35.598Z,38.56
2019-03-21T14:15:06.217Z,40.53
2019-03-21T14:17:34.759Z,40.84
2019-03-21T14:20:03.615Z,39.18
2019-03-21T14:22:32.174Z,39.08
2019-03-21T14:25:00.740Z,38.01
2019-03-21T14:27:29.390Z,37.78
2019-03-21T14:30:01.824Z,37.98
2019-03-21T14:32:28.834Z,37.28
2019-03-21T14:34:57.454Z,36.66
2019-03-21T14:37:26.075Z,36.94
2019-03-21T14:39:55.564Z,36.56
2019-03-21T14:42:24.141Z,36.94
2019-03-21T14:44:52.578Z,36.67
2019-03-21T14:47:21.237Z,36.14
2019-03-21T14:49:49.868Z,36.12
2019-03-21T14:52:18.454Z,36.02
2019-03-21T14:54:47.027Z,36.27
2019-03-21T14:57:16.680Z,36.59
2019-03-21T14:59:45.303Z,36.87
2019-03-21T15:02:13.840Z,37.43
2019-03-21T15:04:42.341Z,36.73
2019-03-21T15:07:10.933Z,36.64
2019-03-21T15:09:39.550Z,35.67
2019-03-21T15:12:08.330Z,35.34
2019-03-21T15:14:36.822Z,34.22
2019-03-21T15:17:05.554Z,35.30
2019-03-21T15:19:34.067Z,35.55
2019-03-21T15:22:02.697Z,35.24
2019-03-21T15:24:31.247Z,34.33
2019-03-21T15:26:59.907Z,35.25
2019-03-21T15:29:28.429Z,36.18
2019-03-21T15:31:57.175Z,36.41
2019-03-21T15:34:25.786Z,36.21
2019-03-21T15:36:54.406Z,35.63
2019-03-21T15:39:23.085Z,35.65
2019-03-21T15:41:51.621Z,36.51
2019-03-21T15:44:20.152Z,36.56
2019-03-21T15:46:48.724Z,36.24
2019-03-21T15:49:17.351Z,36.34
2019-03-21T15:51:45.878Z,36.59
2019-03-21T15:54:15.236Z,35.87
2019-03-21T15:56:43.924Z,37.37
2019-03-21T15:59:12.627Z,36.44
2019-03-21T16:01:41.221Z,37.35
2019-03-21T16:04:09.848Z,36.48
2019-03-21T16:06:38.379Z,37.18
2019-03-21T16:09:07.523Z,37.27
2019-03-21T16:11:36.219Z,36.87
2019-03-21T16:14:04.847Z,37.19
2019-03-21T16:16:33.393Z,37.06
2019-03-21T16:19:01.978Z,37.18
2019-03-21T16:21:30.518Z,37.39
2019-03-21T16:24:04.969Z,37.69
2019-03-21T16:26:29.331Z,37.65
2019-03-21T16:28:57.903Z,37.39
2019-03-21T16:31:26.615Z,37.27
2019-03-21T16:33:55.131Z,37.97
2019-03-21T16:36:23.719Z,37.92
2019-03-21T16:38:52.353Z,38.04
2019-03-21T16:41:20.943Z,37.51
2019-03-21T16:43:49.488Z,38.19
2019-03-21T16:46:18.031Z,37.93
2019-03-21T16:48:46.509Z,37.70
2019-03-21T16:51:15.158Z,38.14
2019-03-21T16:53:44.086Z,38.30
2019-03-21T16:56:12.641Z,37.69
2019-03-21T16:58:41.136Z,37.86
2019-03-21T17:01:09.839Z,37.79
2019-03-21T17:03:38.404Z,38.11
2019-03-21T17:06:07.010Z,38.14
2019-03-21T17:08:35.592Z,38.19
2019-03-21T17:11:04.283Z,37.89
2019-03-21T17:13:32.829Z,38.21
2019-03-21T17:16:01.475Z,38.35
2019-03-21T17:18:30.044Z,38.30
2019-03-21T17:20:58.557Z,38.77
2019-03-21T17:23:27.113Z,38.77
2019-03-21T17:25:55.704Z,38.55
2019-03-21T17:28:24.280Z,40.61
2019-03-21T17:30:52.878Z,39.88
2019-03-21T17:33:21.683Z,39.33
2019-03-21T17:35:50.141Z,39.30
2019-03-21T17:38:18.762Z,40.67
2019-03-21T17:40:47.448Z,40.84
2019-03-21T17:43:16.047Z,41.06
2019-03-21T17:45:45.478Z,41.28
2019-03-21T17:48:14.086Z,41.07
2019-03-21T17:50:42.814Z,41.11
2019-03-21T17:53:11.444Z,41.10
2019-03-21T17:55:39.934Z,41.35
2019-03-21T17:58:08.486Z,42.48
2019-03-21T18:00:37.310Z,43.10
2019-03-21T18:03:07.738Z,43.85
2019-03-21T18:05:36.337Z,43.91
2019-03-21T18:08:05.080Z,44.38
2019-03-21T18:10:36.725Z,45.26
2019-03-21T18:13:05.867Z,45.60
2019-03-21T18:15:34.446Z,45.63
2019-03-21T18:18:03.036Z,46.03
2019-03-21T18:20:31.818Z,46.16
2019-03-21T18:23:00.425Z,46.42
2019-03-21T18:25:29.104Z,46.45
2019-03-21T18:27:57.735Z,46.76
2019-03-21T18:30:26.311Z,47.08
2019-03-21T18:32:54.828Z,47.63
2019-03-21T18:35:23.595Z,47.93
2019-03-21T18:37:52.189Z,48.49
2019-03-21T18:40:21.528Z,48.58
2019-03-21T18:42:50.197Z,49.02
2019-03-21T18:45:18.985Z,49.33
2019-03-21T18:47:47.567Z,49.20
2019-03-21T18:50:16.956Z,49.41
2019-03-21T18:52:45.527Z,49.79
2019-03-21T18:55:14.285Z,49.90
2019-03-21T18:57:42.789Z,50.00
2019-03-21T19:00:21.293Z,49.97
2019-03-21T19:02:50.426Z,50.24
2019-03-21T19:05:19.036Z,50.68
2019-03-21T19:07:47.741Z,51.28
2019-03-21T19:10:16.862Z,51.27
2019-03-21T19:12:45.469Z,51.07
2019-03-21T19:15:16.137Z,51.22
2019-03-21T19:17:44.712Z,51.34
2019-03-21T19:20:15.623Z,51.75
2019-03-21T19:22:44.224Z,51.56
2019-03-21T19:25:18.646Z,52.07
2019-03-21T19:27:43.849Z,52.01
2019-03-21T19:30:17.669Z,52.38
2019-03-21T19:32:46.333Z,52.53
2019-03-21T19:35:15.279Z,52.19
2019-03-21T19:37:43.838Z,51.99
2019-03-21T19:40:17.868Z,52.53
2019-03-21T19:42:46.764Z,52.66
2019-03-21T19:45:17.431Z,52.91
2019-03-21T19:47:46.037Z,52.85
2019-03-21T19:50:19.855Z,53.04
2019-03-21T19:52:48.656Z,53.06
2019-03-21T19:55:25.825Z,52.59
2019-03-21T19:57:47.706Z,53.02
2019-03-21T20:00:19.078Z,52.53
2019-03-21T20:02:48.594Z,52.69
2019-03-21T20:05:17.225Z,52.54
2019-03-21T20:07:45.886Z,53.03
2019-03-21T20:10:20.103Z,53.55
2019-03-21T20:12:48.753Z,54.31
2019-03-21T20:15:18.835Z,54.59
2019-03-21T20:17:47.479Z,53.96
2019-03-21T20:20:17.178Z,53.42
2019-03-21T20:22:45.887Z,53.43
2019-03-21T20:25:14.510Z,53.52
2019-03-21T20:27:43.131Z,53.85
2019-03-21T20:30:17.052Z,54.27
2019-03-21T20:32:45.688Z,53.94
2019-03-21T20:35:14.274Z,54.31
2019-03-21T20:37:43.064Z,54.57
2019-03-21T20:40:17.249Z,55.05
2019-03-21T20:42:45.884Z,54.52
2019-03-21T20:45:16.386Z,54.48
2019-03-21T20:47:45.078Z,54.98
2019-03-21T20:50:14.024Z,54.94
2019-03-21T20:52:42.647Z,55.38
2019-03-21T20:55:11.571Z,55.68
2019-03-21T20:57:40.221Z,56.05
2019-03-21T21:00:17.945Z,56.66
2019-03-21T21:02:46.573Z,57.08
2019-03-21T21:05:15.728Z,57.14
2019-03-21T21:07:44.426Z,57.38
2019-03-21T21:10:14.351Z,57.53
2019-03-21T21:12:43.258Z,57.69
2019-03-21T21:15:16.227Z,58.01
2019-03-21T21:17:44.867Z,58.47
2019-03-21T21:20:16.015Z,58.03
2019-03-21T21:22:44.642Z,58.51
2019-03-21T21:25:14.041Z,58.70
2019-03-21T21:27:49.337Z,58.54
2019-03-21T21:30:15.759Z,58.30
2019-03-21T21:32:44.586Z,58.45
2019-03-21T21:35:13.346Z,58.72
2019-03-21T21:37:41.990Z,58.59
2019-03-21T21:40:12.327Z,58.23
2019-03-21T21:42:41.018Z,58.23
2019-03-21T21:45:12.245Z,58.31
2019-03-21T21:47:40.868Z,58.23
2019-03-21T21:50:12.428Z,58.66
2019-03-21T21:52:42.131Z,58.89
2019-03-21T21:55:11.410Z,58.56
2019-03-21T21:57:40.003Z,58.53
2019-03-21T22:00:17.326Z,58.66
2019-03-21T22:02:45.925Z,59.35
2019-03-21T22:05:14.514Z,59.35
2019-03-21T22:07:43.217Z,60.02
2019-03-21T22:10:11.906Z,60.17
2019-03-21T22:12:40.462Z,59.83
2019-03-21T22:15:13.781Z,59.30
2019-03-21T22:17:42.671Z,59.12
2019-03-21T22:20:15.967Z,58.58
2019-03-21T22:22:44.701Z,59.30
2019-03-21T22:25:13.405Z,59.32
2019-03-21T22:27:43.140Z,60.05
2019-03-21T22:30:21.327Z,60.12
2019-03-21T22:32:49.919Z,59.98
2019-03-21T22:35:18.555Z,60.06
2019-03-21T22:37:47.033Z,59.92
2019-03-21T22:40:17.695Z,59.45
2019-03-21T22:42:46.325Z,59.33
2019-03-21T22:45:19.284Z,60.11
2019-03-21T22:47:50.345Z,59.99
2019-03-21T22:50:18.464Z,60.40
2019-03-21T22:52:47.110Z,60.45
2019-03-21T22:55:15.805Z,61.06
2019-03-21T22:57:44.387Z,60.98
2019-03-21T23:00:15.833Z,61.65
2019-03-21T23:02:44.607Z,62.63
2019-03-21T23:05:13.835Z,62.37
2019-03-21T23:07:42.425Z,61.71
2019-03-21T23:10:11.719Z,61.78
2019-03-21T23:12:40.460Z,61.49
2019-03-21T23:15:10.372Z,61.55
2019-03-21T23:17:39.258Z,61.67
2019-03-21T23:20:10.364Z,61.68
2019-03-21T23:22:39.133Z,61.66
2019-03-21T23:25:08.745Z,61.70
2019-03-21T23:27:37.982Z,62.11
2019-03-21T23:30:12.309Z,62.05
2019-03-21T23:32:40.930Z,62.29
2019-03-21T23:35:10.512Z,62.42
2019-03-21T23:37:39.230Z,62.06
2019-03-21T23:40:15.293Z,62.40
2019-03-21T23:42:44.153Z,62.44
2019-03-21T23:45:14.504Z,62.83
2019-03-21T23:47:43.118Z,62.55
2019-03-21T23:50:14.658Z,61.98
2019-03-21T23:52:43.295Z,62.01
2019-03-21T23:55:12.415Z,62.46
2019-03-21T23:57:40.965Z,63.03
